createdAt,value
2023-04-06T00:00:00.856Z,0.00
2023-04-06T00:01:00.828Z,0.00
2023-04-06T00:02:00.870Z,0.00
2023-04-06T00:03:00.827Z,0.00
2023-04-06T00:04:00.843Z,0.00
2023-04-06T00:05:00.782Z,0.00
2023-04-06T00:06:00.778Z,0.00
2023-04-06T00:07:00.735Z,0.00
2023-04-06T00:08:00.743Z,0.00
2023-04-06T00:09:00.718Z,0.00
2023-04-06T00:10:00.701Z,0.00
2023-04-06T00:11:00.680Z,0.00
2023-04-06T00:12:00.685Z,0.00
2023-04-06T00:13:00.650Z,0.00
2023-04-06T00:14:00.634Z,0.00
2023-04-06T00:15:00.626Z,0.00
2023-04-06T00:16:00.640Z,0.00
2023-04-06T00:17:00.726Z,0.00
2023-04-06T00:18:00.656Z,0.00
2023-04-06T00:19:00.589Z,0.00
2023-04-06T00:20:00.583Z,0.00
2023-04-06T00:21:00.554Z,0.00
2023-04-06T00:22:00.568Z,0.00
2023-04-06T00:23:00.515Z,0.00
2023-04-06T00:24:00.517Z,0.00
2023-04-06T00:25:00.495Z,0.00
2023-04-06T00:26:00.482Z,0.00
2023-04-06T00:27:00.467Z,0.00
2023-04-06T00:28:00.461Z,0.00
2023-04-06T00:29:00.439Z,0.00
2023-04-06T00:30:00.576Z,0.00
2023-04-06T00:31:00.416Z,0.00
2023-04-06T00:32:00.476Z,0.00
2023-04-06T00:33:00.884Z,0.00
2023-04-06T00:34:00.377Z,0.00
2023-04-06T00:35:00.362Z,0.00
2023-04-06T00:36:00.697Z,0.00
2023-04-06T00:37:00.332Z,0.00
2023-04-06T00:38:00.329Z,0.00
2023-04-06T00:39:00.298Z,0.00
2023-04-06T00:40:00.298Z,0.00
2023-04-06T00:41:00.293Z,0.00
2023-04-06T00:42:00.272Z,0.00
2023-04-06T00:43:00.257Z,0.00
2023-04-06T00:44:00.246Z,0.00
2023-04-06T00:45:00.238Z,0.00
2023-04-06T00:46:00.275Z,0.00
2023-04-06T00:47:00.249Z,0.00
2023-04-06T00:48:00.249Z,0.00
2023-04-06T00:49:00.175Z,0.00
2023-04-06T00:50:00.167Z,0.00
2023-04-06T00:51:00.152Z,0.00
2023-04-06T00:52:00.140Z,0.00
2023-04-06T00:53:00.123Z,0.00
2023-04-06T00:54:00.147Z,0.00
2023-04-06T00:55:00.115Z,0.00
2023-04-06T00:56:00.104Z,0.00
2023-04-06T00:57:00.096Z,0.00
2023-04-06T00:58:00.054Z,0.00
2023-04-06T00:59:00.070Z,0.00
2023-04-06T01:00:00.063Z,0.00
2023-04-06T01:01:00.158Z,0.00
2023-04-06T01:02:00.100Z,0.00
2023-04-06T01:03:00.044Z,0.00
2023-04-06T01:04:00.001Z,0.00
2023-04-06T01:04:59.994Z,0.00
2023-04-06T01:05:59.964Z,0.00
2023-04-06T01:06:59.933Z,0.00
2023-04-06T01:07:59.924Z,0.00
2023-04-06T01:08:59.925Z,0.00
2023-04-06T01:09:59.898Z,0.00
2023-04-06T01:10:59.881Z,0.00
2023-04-06T01:11:59.872Z,0.00
2023-04-06T01:12:59.852Z,0.00
2023-04-06T01:13:59.893Z,0.00
2023-04-06T01:14:59.828Z,0.00
2023-04-06T01:15:59.856Z,0.00
2023-04-06T01:16:59.803Z,0.00
2023-04-06T01:17:59.809Z,0.00
2023-04-06T01:18:59.782Z,0.00
2023-04-06T01:19:59.793Z,0.00
2023-04-06T01:20:59.750Z,0.00
2023-04-06T01:21:59.739Z,0.00
2023-04-06T01:22:59.722Z,0.00
2023-04-06T01:23:59.713Z,0.00
2023-04-06T01:24:59.691Z,0.00
2023-04-06T01:25:59.687Z,0.00
2023-04-06T01:26:59.673Z,0.00
2023-04-06T01:27:59.655Z,0.00
2023-04-06T01:28:59.645Z,0.00
2023-04-06T01:29:59.634Z,0.00
2023-04-06T01:30:59.625Z,0.00
2023-04-06T01:31:59.599Z,0.00
2023-04-06T01:32:59.622Z,0.00
2023-04-06T01:33:59.578Z,0.00
2023-04-06T01:34:59.562Z,0.00
2023-04-06T01:35:59.583Z,0.00
2023-04-06T01:36:59.538Z,0.00
2023-04-06T01:37:59.537Z,0.00
2023-04-06T01:38:59.511Z,0.00
2023-04-06T01:39:59.510Z,0.00
2023-04-06T01:40:59.486Z,0.00
2023-04-06T01:41:59.467Z,0.00
2023-04-06T01:42:59.450Z,0.00
2023-04-06T01:43:59.445Z,0.00
2023-04-06T01:44:59.430Z,0.00
2023-04-06T01:45:59.419Z,0.00
2023-04-06T01:46:59.438Z,0.00
2023-04-06T01:47:59.482Z,0.00
2023-04-06T01:48:59.382Z,0.00
2023-04-06T01:49:59.373Z,0.00
2023-04-06T01:50:59.346Z,0.00
2023-04-06T01:51:59.358Z,0.00
2023-04-06T01:52:59.317Z,0.00
2023-04-06T01:53:59.314Z,0.00
2023-04-06T01:54:59.292Z,0.00
2023-04-06T01:55:59.290Z,0.00
2023-04-06T01:56:59.267Z,0.00
2023-04-06T01:57:59.258Z,0.00
2023-04-06T01:58:59.297Z,0.00
2023-04-06T01:59:59.231Z,0.00
2023-04-06T02:00:59.225Z,0.00
2023-04-06T02:01:59.243Z,0.00
2023-04-06T02:02:59.221Z,0.00
2023-04-06T02:03:59.175Z,0.00
2023-04-06T02:04:59.161Z,0.00
2023-04-06T02:05:59.149Z,0.00
2023-04-06T02:06:59.140Z,0.00
2023-04-06T02:07:59.140Z,0.00
2023-04-06T02:08:59.102Z,0.00
2023-04-06T02:09:59.091Z,0.00
2023-04-06T02:10:59.075Z,0.00
2023-04-06T02:11:59.065Z,0.00
2023-04-06T02:12:59.050Z,0.00
2023-04-06T02:13:59.039Z,0.00
2023-04-06T02:14:59.025Z,0.00
2023-04-06T02:15:59.173Z,0.00
2023-04-06T02:16:59.130Z,0.00
2023-04-06T02:17:59.012Z,0.00
2023-04-06T02:18:58.972Z,0.00
2023-04-06T02:19:58.948Z,0.00
2023-04-06T02:20:58.946Z,0.00
2023-04-06T02:21:58.924Z,0.00
2023-04-06T02:22:58.912Z,0.00
2023-04-06T02:23:58.925Z,0.00
2023-04-06T02:24:58.886Z,0.00
2023-04-06T02:25:58.875Z,0.00
2023-04-06T02:26:58.859Z,0.00
2023-04-06T02:27:58.847Z,0.00
2023-04-06T02:28:58.836Z,0.00
2023-04-06T02:29:58.821Z,0.00
2023-04-06T02:30:58.805Z,0.00
2023-04-06T02:31:58.837Z,0.00
2023-04-06T02:32:58.798Z,0.00
2023-04-06T02:33:58.766Z,0.00
2023-04-06T02:34:58.757Z,0.00
2023-04-06T02:35:58.952Z,0.00
2023-04-06T02:36:58.728Z,0.00
2023-04-06T02:37:59.070Z,0.00
2023-04-06T02:38:58.700Z,0.00
2023-04-06T02:39:58.711Z,0.00
2023-04-06T02:40:58.670Z,0.00
2023-04-06T02:41:58.661Z,0.00
2023-04-06T02:42:58.641Z,0.00
2023-04-06T02:43:58.631Z,0.00
2023-04-06T02:44:58.629Z,0.00
2023-04-06T02:45:58.663Z,0.00
2023-04-06T02:46:58.586Z,0.00
2023-04-06T02:47:58.626Z,0.00
2023-04-06T02:48:58.560Z,0.00
2023-04-06T02:49:58.550Z,0.00
2023-04-06T02:50:58.533Z,0.00
2023-04-06T02:51:58.524Z,0.00
2023-04-06T02:52:58.506Z,0.00
2023-04-06T02:53:58.497Z,0.00
2023-04-06T02:54:58.484Z,0.00
2023-04-06T02:55:58.488Z,0.00
2023-04-06T02:56:58.446Z,0.00
2023-04-06T02:57:58.440Z,0.00
2023-04-06T02:58:58.470Z,0.00
2023-04-06T02:59:58.410Z,0.00
2023-04-06T03:00:58.443Z,0.00
2023-04-06T03:01:58.385Z,0.00
2023-04-06T03:02:58.484Z,0.00
2023-04-06T03:03:58.372Z,0.00
2023-04-06T03:04:58.345Z,0.00
2023-04-06T03:05:58.334Z,0.00
2023-04-06T03:07:01.187Z,0.00
2023-04-06T03:07:58.308Z,0.00
2023-04-06T03:08:58.303Z,0.00
2023-04-06T03:09:58.286Z,0.00
2023-04-06T03:10:58.264Z,0.00
2023-04-06T03:11:58.276Z,0.00
2023-04-06T03:12:58.241Z,0.00
2023-04-06T03:13:58.222Z,0.00
2023-04-06T03:14:58.210Z,0.00
2023-04-06T03:15:58.216Z,0.00
2023-04-06T03:16:58.181Z,0.00
2023-04-06T03:18:00.241Z,0.00
2023-04-06T03:18:58.156Z,0.00
2023-04-06T03:19:58.151Z,0.00
2023-04-06T03:20:58.134Z,0.00
2023-04-06T03:21:58.112Z,0.00
2023-04-06T03:22:58.105Z,0.00
2023-04-06T03:23:58.090Z,0.00
2023-04-06T03:24:58.083Z,0.00
2023-04-06T03:25:58.064Z,0.00
2023-04-06T03:26:58.045Z,0.00
2023-04-06T03:27:58.065Z,0.00
2023-04-06T03:28:58.070Z,0.00
2023-04-06T03:29:58.020Z,0.00
2023-04-06T03:30:58.006Z,0.00
2023-04-06T03:31:57.977Z,0.00
2023-04-06T03:32:58.272Z,0.00
2023-04-06T03:33:57.978Z,0.00
2023-04-06T03:34:57.959Z,0.00
2023-04-06T03:35:57.964Z,0.00
2023-04-06T03:37:09.357Z,0.00
2023-04-06T03:37:58.929Z,0.00
2023-04-06T03:38:57.885Z,0.00
2023-04-06T03:39:57.865Z,0.00
2023-04-06T03:40:57.861Z,0.00
2023-04-06T03:41:57.836Z,0.00
2023-04-06T03:42:57.830Z,0.00
2023-04-06T03:43:57.844Z,0.00
2023-04-06T03:44:57.806Z,0.00
2023-04-06T03:45:57.791Z,0.00
2023-04-06T03:46:57.848Z,0.00
2023-04-06T03:47:57.777Z,0.00
2023-04-06T03:48:57.756Z,0.00
2023-04-06T03:49:57.738Z,0.00
2023-04-06T03:50:57.716Z,0.00
2023-04-06T03:51:57.710Z,0.00
2023-04-06T03:52:57.699Z,0.00
2023-04-06T03:53:57.681Z,0.00
2023-04-06T03:54:57.684Z,0.00
2023-04-06T03:55:57.654Z,0.00
2023-04-06T03:56:57.641Z,0.00
2023-04-06T03:57:57.634Z,0.00
2023-04-06T03:58:57.633Z,0.00
2023-04-06T03:59:57.638Z,0.00
2023-04-06T04:00:57.596Z,0.00
2023-04-06T04:01:57.732Z,0.00
2023-04-06T04:02:57.635Z,0.00
2023-04-06T04:03:57.657Z,0.00
2023-04-06T04:04:57.618Z,0.00
2023-04-06T04:05:57.784Z,0.00
2023-04-06T04:06:57.667Z,0.00
2023-04-06T04:07:57.539Z,0.00
2023-04-06T04:08:57.505Z,0.00
2023-04-06T04:09:57.475Z,0.00
2023-04-06T04:10:57.456Z,0.00
2023-04-06T04:11:57.546Z,0.00
2023-04-06T04:12:57.437Z,0.00
2023-04-06T04:13:57.418Z,0.00
2023-04-06T04:14:57.413Z,0.00
2023-04-06T04:15:57.413Z,0.00
2023-04-06T04:16:57.684Z,0.00
2023-04-06T04:17:57.448Z,0.00
2023-04-06T04:18:57.361Z,0.00
2023-04-06T04:19:57.338Z,0.00
2023-04-06T04:20:57.411Z,0.00
2023-04-06T04:21:57.598Z,0.00
2023-04-06T04:22:57.305Z,0.00
2023-04-06T04:23:57.292Z,0.00
2023-04-06T04:24:57.282Z,0.00
2023-04-06T04:25:57.264Z,0.00
2023-04-06T04:26:57.264Z,0.00
2023-04-06T04:27:57.247Z,0.00
2023-04-06T04:28:57.431Z,0.00
2023-04-06T04:29:57.222Z,0.00
2023-04-06T04:30:57.203Z,0.00
2023-04-06T04:31:57.299Z,0.00
2023-04-06T04:32:57.242Z,0.00
2023-04-06T04:33:57.173Z,0.00
2023-04-06T04:34:57.153Z,0.00
2023-04-06T04:35:57.254Z,0.00
2023-04-06T04:36:57.131Z,0.00
2023-04-06T04:37:57.122Z,0.00
2023-04-06T04:38:57.109Z,0.00
2023-04-06T04:39:57.085Z,0.00
2023-04-06T04:40:57.078Z,0.00
2023-04-06T04:41:57.063Z,0.00
2023-04-06T04:42:57.067Z,0.00
2023-04-06T04:43:57.038Z,0.00
2023-04-06T04:44:57.024Z,5.62
2023-04-06T04:45:57.063Z,5.62
2023-04-06T04:46:57.006Z,5.62
2023-04-06T04:47:57.156Z,5.62
2023-04-06T04:48:57.012Z,5.62
2023-04-06T04:49:56.980Z,5.62
2023-04-06T04:50:56.954Z,5.62
2023-04-06T04:51:56.943Z,11.25
2023-04-06T04:52:56.932Z,11.25
2023-04-06T04:53:56.913Z,11.25
2023-04-06T04:54:56.907Z,11.25
2023-04-06T04:55:56.883Z,11.25
2023-04-06T04:56:56.870Z,16.88
2023-04-06T04:57:56.871Z,16.88
2023-04-06T04:58:56.866Z,16.88
2023-04-06T04:59:58.014Z,16.88
2023-04-06T05:00:56.874Z,22.50
2023-04-06T05:01:56.840Z,22.50
2023-04-06T05:02:56.894Z,22.50
2023-04-06T05:03:56.800Z,28.12
2023-04-06T05:04:56.777Z,28.12
2023-04-06T05:05:56.763Z,28.12
2023-04-06T05:06:56.746Z,33.75
2023-04-06T05:07:56.726Z,33.75
2023-04-06T05:08:56.734Z,33.75
2023-04-06T05:09:56.706Z,39.38
2023-04-06T05:10:56.694Z,39.38
2023-04-06T05:11:56.677Z,45.00
2023-04-06T05:12:56.667Z,45.00
2023-04-06T05:13:56.663Z,45.00
2023-04-06T05:14:56.643Z,50.62
2023-04-06T05:15:56.680Z,50.62
2023-04-06T05:16:56.623Z,56.25
2023-04-06T05:17:56.730Z,56.25
2023-04-06T05:18:56.596Z,56.25
2023-04-06T05:19:56.600Z,61.88
2023-04-06T05:20:56.564Z,61.88
2023-04-06T05:21:56.545Z,67.50
2023-04-06T05:22:56.739Z,67.50
2023-04-06T05:23:56.528Z,67.50
2023-04-06T05:24:56.511Z,73.12
2023-04-06T05:25:56.496Z,73.12
2023-04-06T05:26:56.486Z,73.12
2023-04-06T05:27:56.475Z,78.75
2023-04-06T05:28:56.464Z,95.62
2023-04-06T05:29:57.916Z,95.62
2023-04-06T05:30:56.472Z,95.62
2023-04-06T05:31:56.426Z,101.25
2023-04-06T05:32:56.410Z,101.25
2023-04-06T05:33:56.401Z,101.25
2023-04-06T05:34:56.382Z,106.88
2023-04-06T05:35:56.460Z,112.50
2023-04-06T05:36:56.361Z,112.50
2023-04-06T05:37:56.340Z,112.50
2023-04-06T05:38:56.325Z,118.12
2023-04-06T05:39:56.303Z,118.12
2023-04-06T05:40:56.291Z,123.75
2023-04-06T05:41:56.292Z,123.75
2023-04-06T05:42:56.273Z,129.38
2023-04-06T05:43:56.248Z,135.00
2023-04-06T05:44:56.236Z,140.62
2023-04-06T05:45:56.223Z,146.25
2023-04-06T05:46:56.486Z,151.88
2023-04-06T05:47:56.218Z,157.50
2023-04-06T05:48:56.181Z,163.12
2023-04-06T05:49:56.168Z,163.12
2023-04-06T05:50:56.167Z,168.75
2023-04-06T05:51:56.166Z,174.38
2023-04-06T05:52:56.131Z,174.38
2023-04-06T05:53:56.118Z,174.38
2023-04-06T05:54:56.095Z,180.00
2023-04-06T05:55:56.100Z,191.25
2023-04-06T05:56:56.077Z,196.88
2023-04-06T05:57:56.413Z,202.50
2023-04-06T05:58:56.114Z,196.88
2023-04-06T05:59:56.026Z,202.50
2023-04-06T06:00:56.486Z,219.38
2023-04-06T06:01:56.030Z,298.12
2023-04-06T06:02:56.065Z,360.00
2023-04-06T06:03:55.976Z,354.38
2023-04-06T06:04:56.065Z,331.88
2023-04-06T06:05:55.950Z,320.62
2023-04-06T06:06:55.938Z,298.12
2023-04-06T06:07:55.955Z,281.25
2023-04-06T06:08:55.909Z,264.38
2023-04-06T06:09:55.891Z,258.75
2023-04-06T06:10:55.887Z,258.75
2023-04-06T06:11:55.879Z,258.75
2023-04-06T06:12:55.860Z,264.38
2023-04-06T06:13:55.843Z,264.38
2023-04-06T06:14:55.827Z,270.00
2023-04-06T06:15:55.834Z,270.00
2023-04-06T06:16:55.810Z,275.62
2023-04-06T06:17:55.951Z,281.25
2023-04-06T06:18:55.772Z,286.88
2023-04-06T06:19:55.884Z,286.88
2023-04-06T06:20:55.747Z,286.88
2023-04-06T06:21:55.734Z,292.50
2023-04-06T06:22:55.727Z,298.12
2023-04-06T06:23:55.742Z,309.38
2023-04-06T06:24:55.703Z,320.62
2023-04-06T06:25:55.672Z,348.75
2023-04-06T06:26:55.665Z,416.25
2023-04-06T06:27:55.655Z,500.62
2023-04-06T06:28:55.645Z,562.50
2023-04-06T06:29:55.700Z,585.00
2023-04-06T06:30:55.621Z,596.25
2023-04-06T06:31:55.635Z,590.62
2023-04-06T06:32:55.675Z,506.25
2023-04-06T06:33:55.589Z,410.62
2023-04-06T06:34:55.564Z,393.75
2023-04-06T06:35:55.589Z,388.12
2023-04-06T06:36:55.755Z,393.75
2023-04-06T06:37:55.538Z,405.00
2023-04-06T06:38:55.511Z,461.25
2023-04-06T06:39:55.545Z,590.62
2023-04-06T06:40:55.561Z,697.50
2023-04-06T06:41:55.482Z,731.25
2023-04-06T06:42:55.460Z,742.50
2023-04-06T06:43:55.433Z,759.38
2023-04-06T06:44:55.448Z,781.88
2023-04-06T06:45:55.836Z,810.00
2023-04-06T06:46:55.399Z,810.00
2023-04-06T06:47:55.878Z,815.62
2023-04-06T06:48:55.395Z,810.00
2023-04-06T06:49:55.401Z,849.38
2023-04-06T06:50:55.373Z,871.88
2023-04-06T06:51:55.348Z,883.12
2023-04-06T06:52:55.320Z,883.12
2023-04-06T06:53:55.304Z,883.12
2023-04-06T06:54:57.175Z,916.88
2023-04-06T06:55:55.298Z,905.62
2023-04-06T06:56:55.269Z,888.75
2023-04-06T06:57:55.255Z,922.50
2023-04-06T06:58:55.268Z,961.88
2023-04-06T06:59:55.223Z,995.62
2023-04-06T07:00:55.246Z,1023.75
2023-04-06T07:01:55.197Z,1029.38
2023-04-06T07:02:55.224Z,1046.25
2023-04-06T07:03:55.181Z,1063.12
2023-04-06T07:04:55.282Z,1091.25
2023-04-06T07:05:55.145Z,1091.25
2023-04-06T07:06:55.136Z,1074.38
2023-04-06T07:07:55.104Z,1091.25
2023-04-06T07:08:55.103Z,1130.62
2023-04-06T07:09:55.084Z,1141.88
2023-04-06T07:10:55.096Z,1130.62
2023-04-06T07:11:55.086Z,1136.25
2023-04-06T07:12:55.051Z,1136.25
2023-04-06T07:13:55.024Z,1147.50
2023-04-06T07:14:55.018Z,1209.38
2023-04-06T07:15:55.032Z,1231.88
2023-04-06T07:16:55.017Z,1220.62
2023-04-06T07:17:55.017Z,1288.12
2023-04-06T07:18:54.976Z,1271.25
2023-04-06T07:19:55.335Z,1237.50
2023-04-06T07:20:54.935Z,1276.88
2023-04-06T07:21:54.921Z,1383.75
2023-04-06T07:22:55.039Z,1350.00
2023-04-06T07:23:54.885Z,1366.88
2023-04-06T07:24:54.975Z,1406.25
2023-04-06T07:25:54.865Z,1338.75
2023-04-06T07:26:54.870Z,1310.62
2023-04-06T07:27:54.869Z,1350.00
2023-04-06T07:28:54.832Z,1344.38
2023-04-06T07:29:54.803Z,1293.75
2023-04-06T07:30:54.793Z,1372.50
2023-04-06T07:31:54.866Z,1378.12
2023-04-06T07:32:54.828Z,1355.62
2023-04-06T07:33:54.811Z,1383.75
2023-04-06T07:34:54.785Z,1400.62
2023-04-06T07:35:54.783Z,1428.75
2023-04-06T07:36:54.725Z,1462.50
2023-04-06T07:37:54.701Z,1445.62
2023-04-06T07:38:54.717Z,1417.50
2023-04-06T07:39:54.681Z,1496.25
2023-04-06T07:40:54.672Z,1569.38
2023-04-06T07:41:54.654Z,1535.62
2023-04-06T07:42:55.778Z,1468.12
2023-04-06T07:43:54.643Z,1451.25
2023-04-06T07:44:54.610Z,1473.75
2023-04-06T07:45:54.642Z,1546.88
2023-04-06T07:46:54.583Z,1575.00
2023-04-06T07:47:54.644Z,1575.00
2023-04-06T07:48:54.548Z,1558.12
2023-04-06T07:49:54.532Z,1597.50
2023-04-06T07:50:54.521Z,1636.88
2023-04-06T07:51:54.505Z,1614.38
2023-04-06T07:52:54.499Z,1636.88
2023-04-06T07:53:54.486Z,1676.25
2023-04-06T07:54:54.473Z,1676.25
2023-04-06T07:55:54.460Z,1648.12
2023-04-06T07:56:54.444Z,1687.50
2023-04-06T07:57:54.432Z,1726.88
2023-04-06T07:58:54.576Z,1760.62
2023-04-06T07:59:54.429Z,1766.25
2023-04-06T08:00:54.395Z,1755.00
2023-04-06T08:01:54.378Z,1704.38
2023-04-06T08:02:54.447Z,1715.62
2023-04-06T08:03:54.446Z,1788.75
2023-04-06T08:04:54.455Z,1788.75
2023-04-06T08:05:54.324Z,1766.25
2023-04-06T08:06:54.334Z,1811.25
2023-04-06T08:07:54.298Z,1833.75
2023-04-06T08:08:54.316Z,1822.50
2023-04-06T08:09:54.269Z,1800.00
2023-04-06T08:10:54.263Z,1794.38
2023-04-06T08:11:54.247Z,1766.25
2023-04-06T08:12:54.233Z,1704.38
2023-04-06T08:13:54.214Z,1732.50
2023-04-06T08:14:54.212Z,1850.62
2023-04-06T08:15:54.220Z,1760.62
2023-04-06T08:16:54.175Z,1755.00
2023-04-06T08:17:54.179Z,1800.00
2023-04-06T08:18:54.175Z,1788.75
2023-04-06T08:19:54.134Z,1766.25
2023-04-06T08:20:54.123Z,1755.00
2023-04-06T08:21:54.109Z,1839.38
2023-04-06T08:22:54.097Z,1918.12
2023-04-06T08:23:54.087Z,2019.38
2023-04-06T08:24:54.070Z,2058.75
2023-04-06T08:25:54.050Z,2013.75
2023-04-06T08:26:54.046Z,1929.38
2023-04-06T08:27:54.035Z,1895.62
2023-04-06T08:28:54.013Z,1906.88
2023-04-06T08:29:54.036Z,1951.88
2023-04-06T08:30:54.016Z,1963.12
2023-04-06T08:31:54.019Z,2013.75
2023-04-06T08:32:54.464Z,1996.88
2023-04-06T08:33:53.945Z,1816.88
2023-04-06T08:34:53.939Z,1704.38
2023-04-06T08:35:54.290Z,1642.50
2023-04-06T08:36:53.922Z,1681.88
2023-04-06T08:37:53.904Z,1822.50
2023-04-06T08:38:53.877Z,1884.38
2023-04-06T08:39:54.032Z,2053.12
2023-04-06T08:40:53.850Z,2030.62
2023-04-06T08:41:53.839Z,1957.50
2023-04-06T08:42:53.852Z,1822.50
2023-04-06T08:43:53.829Z,1878.75
2023-04-06T08:44:53.804Z,1878.75
2023-04-06T08:45:53.797Z,2030.62
2023-04-06T08:46:53.951Z,2075.62
2023-04-06T08:47:53.849Z,1968.75
2023-04-06T08:48:53.752Z,2019.38
2023-04-06T08:49:53.792Z,2115.00
2023-04-06T08:50:53.723Z,2255.62
2023-04-06T08:51:53.728Z,2221.88
2023-04-06T08:52:53.689Z,2238.75
2023-04-06T08:53:53.689Z,2368.12
2023-04-06T08:54:53.666Z,2373.75
2023-04-06T08:55:53.669Z,2323.12
2023-04-06T08:56:53.650Z,2328.75
2023-04-06T08:57:53.640Z,2171.25
2023-04-06T08:58:55.334Z,2272.50
2023-04-06T08:59:53.640Z,2278.12
2023-04-06T09:00:53.592Z,2283.75
2023-04-06T09:01:53.653Z,2311.88
2023-04-06T09:02:53.659Z,2334.38
2023-04-06T09:03:53.691Z,2385.00
2023-04-06T09:04:53.591Z,2463.75
2023-04-06T09:05:53.523Z,2458.12
2023-04-06T09:06:53.528Z,2379.38
2023-04-06T09:07:53.500Z,2373.75
2023-04-06T09:08:53.482Z,2430.00
2023-04-06T09:09:53.474Z,2390.62
2023-04-06T09:10:53.457Z,2311.88
2023-04-06T09:11:53.483Z,2261.25
2023-04-06T09:12:53.446Z,2351.25
2023-04-06T09:13:53.428Z,2576.25
2023-04-06T09:14:53.405Z,2621.25
2023-04-06T09:15:53.431Z,2581.88
2023-04-06T09:16:53.383Z,2632.50
2023-04-06T09:17:53.461Z,2469.38
2023-04-06T09:18:53.349Z,2525.62
2023-04-06T09:19:53.363Z,2497.50
2023-04-06T09:20:53.476Z,2480.62
2023-04-06T09:21:53.317Z,2452.50
2023-04-06T09:22:53.302Z,2458.12
2023-04-06T09:23:53.343Z,2508.75
2023-04-06T09:24:53.276Z,2475.00
2023-04-06T09:25:53.269Z,2390.62
2023-04-06T09:26:53.252Z,2356.88
2023-04-06T09:27:53.239Z,2368.12
2023-04-06T09:28:53.226Z,2424.38
2023-04-06T09:29:53.212Z,2401.88
2023-04-06T09:30:53.205Z,2362.50
2023-04-06T09:31:53.282Z,2531.25
2023-04-06T09:32:53.347Z,2739.38
2023-04-06T09:33:53.158Z,2756.25
2023-04-06T09:34:53.156Z,2643.75
2023-04-06T09:35:53.249Z,2615.62
2023-04-06T09:36:53.128Z,2666.25
2023-04-06T09:37:53.118Z,2565.00
2023-04-06T09:38:53.105Z,2469.38
2023-04-06T09:39:53.096Z,2497.50
2023-04-06T09:41:00.174Z,2531.25
2023-04-06T09:41:54.091Z,2497.50
2023-04-06T09:42:53.053Z,2559.38
2023-04-06T09:43:53.041Z,2643.75
2023-04-06T09:44:53.026Z,2705.62
2023-04-06T09:45:53.012Z,2733.75
2023-04-06T09:47:00.488Z,2745.00
2023-04-06T09:47:54.110Z,2784.38
2023-04-06T09:48:52.976Z,2761.88
2023-04-06T09:49:52.963Z,2773.12
2023-04-06T09:50:52.959Z,2778.75
2023-04-06T09:51:52.953Z,2677.50
2023-04-06T09:52:52.967Z,2626.88
2023-04-06T09:53:52.905Z,2593.12
2023-04-06T09:54:53.244Z,2480.62
2023-04-06T09:55:52.898Z,2446.88
2023-04-06T09:56:52.879Z,2486.25
2023-04-06T09:57:52.913Z,2581.88
2023-04-06T09:58:52.917Z,2559.38
2023-04-06T09:59:53.101Z,1957.50
2023-04-06T10:00:54.537Z,1091.25
2023-04-06T10:01:52.830Z,849.38
2023-04-06T10:02:52.928Z,804.38
2023-04-06T10:03:52.953Z,765.00
2023-04-06T10:04:52.777Z,736.88
2023-04-06T10:05:52.751Z,714.38
2023-04-06T10:06:52.736Z,703.12
2023-04-06T10:08:00.125Z,691.88
2023-04-06T10:08:53.736Z,686.25
2023-04-06T10:09:52.698Z,675.00
2023-04-06T10:10:52.841Z,663.75
2023-04-06T10:11:52.673Z,658.12
2023-04-06T10:12:52.661Z,658.12
2023-04-06T10:13:52.655Z,658.12
2023-04-06T10:14:52.637Z,652.50
2023-04-06T10:15:52.623Z,652.50
2023-04-06T10:16:52.658Z,652.50
2023-04-06T10:17:52.796Z,652.50
2023-04-06T10:18:52.583Z,652.50
2023-04-06T10:19:52.577Z,658.12
2023-04-06T10:20:52.664Z,663.75
2023-04-06T10:21:52.572Z,663.75
2023-04-06T10:22:52.542Z,675.00
2023-04-06T10:23:52.631Z,691.88
2023-04-06T10:24:52.514Z,720.00
2023-04-06T10:25:52.498Z,765.00
2023-04-06T10:26:52.486Z,826.88
2023-04-06T10:27:52.467Z,1035.00
2023-04-06T10:28:52.465Z,1923.75
2023-04-06T10:29:52.446Z,2626.88
2023-04-06T10:30:52.595Z,2666.25
2023-04-06T10:31:52.506Z,2514.38
2023-04-06T10:32:52.471Z,2486.25
2023-04-06T10:33:52.402Z,2581.88
2023-04-06T10:34:52.387Z,2745.00
2023-04-06T10:35:52.403Z,2750.62
2023-04-06T10:36:52.372Z,2604.38
2023-04-06T10:37:52.365Z,2351.25
2023-04-06T10:38:52.351Z,1642.50
2023-04-06T10:39:52.356Z,2081.25
2023-04-06T10:40:52.323Z,2373.75
2023-04-06T10:41:52.309Z,2711.25
2023-04-06T10:42:52.292Z,2565.00
2023-04-06T10:43:52.330Z,2497.50
2023-04-06T10:44:52.263Z,2463.75
2023-04-06T10:45:52.328Z,2424.38
2023-04-06T10:46:52.246Z,2334.38
2023-04-06T10:47:52.270Z,2199.38
2023-04-06T10:48:52.213Z,2396.25
2023-04-06T10:49:52.208Z,2126.25
2023-04-06T10:50:52.193Z,1153.12
2023-04-06T10:51:52.192Z,753.75
2023-04-06T10:52:52.517Z,663.75
2023-04-06T10:53:52.157Z,1395.00
2023-04-06T10:54:52.143Z,1254.38
2023-04-06T10:55:52.147Z,1035.00
2023-04-06T10:56:52.108Z,1338.75
2023-04-06T10:57:52.103Z,961.88
2023-04-06T10:58:52.132Z,759.38
2023-04-06T10:59:52.082Z,714.38
2023-04-06T11:00:52.071Z,601.88
2023-04-06T11:01:52.090Z,596.25
2023-04-06T11:02:52.098Z,579.38
2023-04-06T11:03:52.055Z,568.12
2023-04-06T11:04:52.007Z,568.12
2023-04-06T11:05:52.000Z,742.50
2023-04-06T11:06:51.985Z,1485.00
2023-04-06T11:07:51.968Z,1096.88
2023-04-06T11:08:51.968Z,1265.62
2023-04-06T11:10:11.212Z,2030.62
2023-04-06T11:10:52.964Z,2261.25
2023-04-06T11:11:51.978Z,2700.00
2023-04-06T11:12:51.898Z,2705.62
2023-04-06T11:13:51.883Z,2514.38
2023-04-06T11:14:51.865Z,2227.50
2023-04-06T11:15:51.864Z,2430.00
2023-04-06T11:16:51.894Z,2840.62
2023-04-06T11:17:52.085Z,2548.12
2023-04-06T11:18:51.836Z,2497.50
2023-04-06T11:19:51.808Z,2531.25
2023-04-06T11:20:51.801Z,2548.12
2023-04-06T11:21:51.788Z,2486.25
2023-04-06T11:22:51.775Z,2407.50
2023-04-06T11:23:51.753Z,2514.38
2023-04-06T11:24:51.736Z,2688.75
2023-04-06T11:25:51.742Z,2801.25
2023-04-06T11:26:51.710Z,2846.25
2023-04-06T11:27:51.720Z,2835.00
2023-04-06T11:28:51.682Z,2711.25
2023-04-06T11:29:51.674Z,2711.25
2023-04-06T11:30:51.779Z,2688.75
2023-04-06T11:31:51.708Z,2683.12
2023-04-06T11:32:51.709Z,2818.12
2023-04-06T11:33:51.625Z,2925.00
2023-04-06T11:34:51.634Z,2784.38
2023-04-06T11:35:51.702Z,2683.12
2023-04-06T11:36:51.594Z,2835.00
2023-04-06T11:37:51.605Z,2812.50
2023-04-06T11:38:51.560Z,2767.50
2023-04-06T11:39:51.554Z,2812.50
2023-04-06T11:40:51.544Z,2711.25
2023-04-06T11:41:51.606Z,2700.00
2023-04-06T11:42:51.512Z,2773.12
2023-04-06T11:43:51.520Z,2846.25
2023-04-06T11:44:51.496Z,2902.50
2023-04-06T11:45:51.485Z,2863.12
2023-04-06T11:46:51.650Z,2716.88
2023-04-06T11:47:51.461Z,2604.38
2023-04-06T11:48:51.533Z,2902.50
2023-04-06T11:49:51.421Z,2908.12
2023-04-06T11:50:51.401Z,2801.25
2023-04-06T11:51:51.500Z,2790.00
2023-04-06T11:52:51.388Z,2840.62
2023-04-06T11:53:51.395Z,2823.75
2023-04-06T11:54:51.375Z,2446.88
2023-04-06T11:55:51.345Z,2401.88
2023-04-06T11:56:51.533Z,2514.38
2023-04-06T11:57:51.324Z,2548.12
2023-04-06T11:58:51.317Z,2683.12
2023-04-06T11:59:51.334Z,2666.25
2023-04-06T12:00:51.285Z,2576.25
2023-04-06T12:01:51.340Z,2430.00
2023-04-06T12:02:51.340Z,2553.75
2023-04-06T12:03:51.399Z,2373.75
2023-04-06T12:04:51.289Z,2340.00
2023-04-06T12:05:51.219Z,2160.00
2023-04-06T12:06:51.213Z,2250.00
2023-04-06T12:07:51.195Z,2058.75
2023-04-06T12:08:51.175Z,2171.25
2023-04-06T12:09:51.168Z,2396.25
2023-04-06T12:10:51.152Z,2475.00
2023-04-06T12:11:51.135Z,2188.12
2023-04-06T12:12:51.130Z,2064.38
2023-04-06T12:13:51.109Z,2075.62
2023-04-06T12:14:51.106Z,2396.25
2023-04-06T12:15:51.196Z,2334.38
2023-04-06T12:16:51.071Z,2373.75
2023-04-06T12:17:51.111Z,2205.00
2023-04-06T12:18:51.043Z,2143.12
2023-04-06T12:19:51.032Z,1974.38
2023-04-06T12:20:51.223Z,2013.75
2023-04-06T12:21:51.006Z,1912.50
2023-04-06T12:22:50.994Z,1704.38
2023-04-06T12:23:50.984Z,1918.12
2023-04-06T12:24:50.968Z,1867.50
2023-04-06T12:25:50.953Z,2311.88
2023-04-06T12:26:54.009Z,2497.50
2023-04-06T12:27:52.045Z,2683.12
2023-04-06T12:28:50.904Z,2761.88
2023-04-06T12:29:50.899Z,2615.62
2023-04-06T12:30:50.887Z,2716.88
2023-04-06T12:31:50.959Z,2598.75
2023-04-06T12:32:51.464Z,2351.25
2023-04-06T12:33:50.861Z,2334.38
2023-04-06T12:34:50.837Z,2306.25
2023-04-06T12:35:50.826Z,2514.38
2023-04-06T12:36:50.847Z,2514.38
2023-04-06T12:37:50.922Z,2446.88